Time;durP1;ratioP1;P1;durP2;ratioP2;P2;SDS_P1;SDS_P2;PMS_P1;PMS_P2;Temp;Humidity;BMP_temperature;BMP_pressure;BME280_temperature;BME280_humidity;BME280_pressure;Samples;Min_cycle;Max_cycle;Signal;HPM_P1;HPM_P2
2023/02/27 00:00:18;;;;;;;14.40;4.20;;;;;;;;;;106991;1263;22534;-78
2023/02/27 00:03:07;;;;;;;15.20;4.30;;;;;;;;;;107131;1274;22539;-77
2023/02/27 00:05:33;;;;;;;15.70;3.90;;;;;;;;;;107120;1274;25291;-73
2023/02/27 00:08:02;;;;;;;13.40;3.60;;;;;;;;;;107051;1273;22554;-74
2023/02/27 00:10:28;;;;;;;13.30;3.70;;;;;;;;;;106874;1258;22538;-78
2023/02/27 00:12:55;;;;;;;13.30;3.60;;;;;;;;;;106924;1275;25220;-73
2023/02/27 00:15:22;;;;;;;12.90;3.90;;;;;;;;;;106898;1275;25306;-75
2023/02/27 00:17:48;;;;;;;12.30;3.40;;;;;;;;;;106906;1272;25483;-78
2023/02/27 00:20:19;;;;;;;15.10;3.40;;;;;;;;;;106905;1274;22567;-76
2023/02/27 00:22:45;;;;;;;14.20;3.20;;;;;;;;;;107163;1274;25325;-77
2023/02/27 00:25:14;;;;;;;14.30;3.40;;;;;;;;;;107091;1275;24186;-77
2023/02/27 00:27:44;;;;;;;11.50;3.20;;;;;;;;;;107146;1274;22646;-75
2023/02/27 00:30:12;;;;;;;12.80;3.30;;;;;;;;;;106801;1260;22530;-75
2023/02/27 00:32:41;;;;;;;13.40;3.80;;;;;;;;;;106681;1275;25470;-74
2023/02/27 00:35:09;;;;;;;12.30;3.40;;;;;;;;;;106802;1275;26617;-75
2023/02/27 00:37:36;;;;;;;10.50;3.40;;;;;;;;;;106753;1275;25281;-76
2023/02/27 00:40:06;;;;;;;11.50;3.50;;;;;;;;;;107100;1274;25459;-75
2023/02/27 00:42:52;;;;;;;14.10;3.50;;;;;;;;;;107067;1274;24211;-76
2023/02/27 00:45:21;;;;;;;11.70;3.10;;;;;;;;;;107059;1274;24237;-79
2023/02/27 00:48:21;;;;;;;14.90;4.00;;;;;;;;;;107052;1274;24953;-77
2023/02/27 00:50:52;;;;;;;11.70;3.00;;;;;;;;;;107072;1256;25264;-79
2023/02/27 00:53:19;;;;;;;14.10;3.60;;;;;;;;;;106887;1275;22550;-78
2023/02/27 00:55:46;;;;;;;13.90;3.40;;;;;;;;;;107125;1275;24217;-77
2023/02/27 00:58:13;;;;;;;14.10;3.80;;;;;;;;;;107121;1275;23124;-74
2023/02/27 01:00:41;;;;;;;11.90;3.20;;;;;;;;;;106919;1259;25338;-76
2023/02/27 01:03:10;;;;;;;14.60;3.70;;;;;;;;;;107121;1274;22527;-79
2023/02/27 01:05:39;;;;;;;14.90;4.00;;;;;;;;;;107086;1274;22492;-78
2023/02/27 01:08:10;;;;;;;14.70;3.60;;;;;;;;;;107009;1274;22521;-80
2023/02/27 01:10:39;;;;;;;12.90;3.10;;;;;;;;;;106978;1260;22548;-78
2023/02/27 01:13:08;;;;;;;9.50;3.30;;;;;;;;;;107015;1275;22540;-80
2023/02/27 01:15:34;;;;;;;13.20;3.50;;;;;;;;;;106910;1275;23876;-78
2023/02/27 01:18:21;;;;;;;13.00;3.40;;;;;;;;;;106890;1275;22544;-78
2023/02/27 01:20:52;;;;;;;13.90;3.70;;;;;;;;;;106968;1258;22727;-76
2023/02/27 01:23:21;;;;;;;13.20;3.50;;;;;;;;;;107007;1274;22528;-80
2023/02/27 01:25:53;;;;;;;13.20;3.70;;;;;;;;;;107040;1274;24186;-74
2023/02/27 01:28:22;;;;;;;13.40;3.60;;;;;;;;;;107061;1274;22528;-75
2023/02/27 01:30:51;;;;;;;13.30;3.60;;;;;;;;;;107046;1256;25204;-76
2023/02/27 01:33:32;;;;;;;12.90;3.50;;;;;;;;;;106860;1275;22535;-77
2023/02/27 01:36:01;;;;;;;14.00;4.20;;;;;;;;;;107134;1275;24196;-78
2023/02/27 01:38:27;;;;;;;13.70;4.20;;;;;;;;;;107146;1275;25332;-77
2023/02/27 01:41:03;;;;;;;15.10;4.40;;;;;;;;;;106951;1256;22502;-77
2023/02/27 01:43:32;;;;;;;16.10;4.50;;;;;;;;;;107186;1274;25318;-74
2023/02/27 01:46:01;;;;;;;16.40;5.20;;;;;;;;;;107128;1274;26624;-75
2023/02/27 01:48:44;;;;;;;13.40;4.00;;;;;;;;;;106893;1274;26586;-77
2023/02/27 01:51:17;;;;;;;14.00;4.90;;;;;;;;;;107111;1274;26490;-76
2023/02/27 01:53:45;;;;;;;13.20;4.30;;;;;;;;;;106945;1275;22525;-77
2023/02/27 01:56:15;;;;;;;11.20;3.90;;;;;;;;;;106924;1275;25367;-73
2023/02/27 01:58:42;;;;;;;14.30;4.10;;;;;;;;;;106922;1275;22536;-77
2023/02/27 02:01:29;;;;;;;11.70;3.90;;;;;;;;;;106970;1257;25321;-77
2023/02/27 02:04:05;;;;;;;13.70;3.90;;;;;;;;;;107110;1274;25226;-77
2023/02/27 02:07:16;;;;;;;13.60;4.20;;;;;;;;;;107063;1274;22532;-79
2023/02/27 02:10:22;;;;;;;12.50;3.60;;;;;;;;;;107095;1274;22527;-75
2023/02/27 02:13:28;;;;;;;12.60;3.70;;;;;;;;;;107087;1256;22646;-79
2023/02/27 02:16:42;;;;;;;12.40;3.90;;;;;;;;;;107078;1264;24193;-75
2023/02/27 02:19:53;;;;;;;12.30;3.40;;;;;;;;;;107110;1262;25233;-77
2023/02/27 02:22:56;;;;;;;10.30;3.20;;;;;;;;;;107097;1256;24253;-77
2023/02/27 02:34:01;;;;;;;10.90;2.80;;;;;;;;;;107067;1257;23094;-79
2023/02/27 02:36:42;;;;;;;;;;;;;;;;;;;;;
2023/02/27 02:40:14;;;;;;;11.50;3.10;;;;;;;;;;106677;1281;25266;-73
2023/02/27 02:43:05;;;;;;;11.40;3.90;;;;;;;;;;106175;1281;22549;-78
2023/02/27 02:46:10;;;;;;;;;;;;;;;;;;;;;
2023/02/27 02:49:19;;;;;;;13.00;4.70;;;;;;;;;;106202;1287;22667;-75
2023/02/27 02:52:28;;;;;;;13.80;4.50;;;;;;;;;;105976;1268;24257;-78
2023/02/27 02:55:10;;;;;;;16.10;4.70;;;;;;;;;;106161;1287;22647;-78
2023/02/27 02:58:47;;;;;;;13.20;4.70;;;;;;;;;;105709;1292;21897;-77
2023/02/27 03:02:20;;;;;;;13.60;4.20;;;;;;;;;;105698;1292;22578;-79
2023/02/27 03:05:04;;;;;;;12.30;4.20;;;;;;;;;;105729;1292;26665;-76
2023/02/27 03:08:12;;;;;;;11.20;4.40;;;;;;;;;;105916;1288;23014;-74
2023/02/27 03:11:11;;;;;;;14.70;4.00;;;;;;;;;;105789;1293;24694;-78
2023/02/27 03:14:53;;;;;;;14.00;4.10;;;;;;;;;;105714;1277;25337;-77
2023/02/27 03:17:45;;;;;;;;;;;;;;;;;;;;;
2023/02/27 03:20:21;;;;;;;12.00;4.20;;;;;;;;;;105898;1288;24373;-73
2023/02/27 03:22:57;;;;;;;14.70;4.10;;;;;;;;;;106002;1288;22608;-73
2023/02/27 03:25:48;;;;;;;12.60;3.90;;;;;;;;;;105997;1270;23179;-79
2023/02/27 03:35:16;;;;;;;11.50;3.60;;;;;;;;;;106093;1264;22546;-78
2023/02/27 03:38:22;;;;;;;12.60;3.70;;;;;;;;;;106228;1283;25230;-73
2023/02/27 03:41:17;;;;;;;13.80;4.30;;;;;;;;;;106322;1279;24206;-79
2023/02/27 03:47:36;;;;;;;17.60;4.30;;;;;;;;;;106482;1276;22552;-78
2023/02/27 03:51:11;;;;;;;13.40;3.10;;;;;;;;;;107019;1275;22552;-74
2023/02/27 03:53:40;;;;;;;8.40;2.00;;;;;;;;;;106980;1275;22524;-78
2023/02/27 03:56:36;;;;;;;;;;;;;;;;;;;;;
2023/02/27 04:02:30;;;;;;;10.20;2.60;;;;;;;;;;106892;1275;25335;-74
2023/02/27 04:05:49;;;;;;;10.10;3.20;;;;;;;;;;107037;1255;22527;-73
2023/02/27 04:08:52;;;;;;;;;;;;;;;;;;;;;
2023/02/27 04:11:56;;;;;;;11.00;2.60;;;;;;;;;;107096;1275;22600;-76
2023/02/27 04:14:34;;;;;;;11.20;2.80;;;;;;;;;;107066;1274;25278;-74
2023/02/27 04:17:25;;;;;;;10.70;2.70;;;;;;;;;;106830;1275;24337;-73
2023/02/27 04:20:44;;;;;;;;;;;;;;;;;;;;;
2023/02/27 04:23:38;;;;;;;11.40;3.00;;;;;;;;;;107028;1267;22523;-75
2023/02/27 04:26:51;;;;;;;9.00;2.70;;;;;;;;;;107116;1257;24170;-74
2023/02/27 04:30:23;;;;;;;12.60;3.00;;;;;;;;;;107126;1274;24215;-77
2023/02/27 04:33:14;;;;;;;10.60;3.10;;;;;;;;;;107171;1274;25281;-73
2023/02/27 04:39:50;;;;;;;;;;;;;;;;;;;;;
2023/02/27 04:42:22;;;;;;;10.40;3.10;;;;;;;;;;106329;1283;25289;-74
2023/02/27 04:45:13;;;;;;;;;;;;;;;;;;;;;
2023/02/27 04:48:20;;;;;;;12.80;3.30;;;;;;;;;;106436;1281;24273;-75
2023/02/27 04:54:21;;;;;;;11.00;2.60;;;;;;;;;;106579;1281;22551;-76
2023/02/27 04:57:17;;;;;;;;;;;;;;;;;;;;;
2023/02/27 05:00:26;;;;;;;9.30;3.40;;;;;;;;;;106124;1287;22518;-75
2023/02/27 05:03:08;;;;;;;;;;;;;;;;;;;;;
2023/02/27 05:06:22;;;;;;;12.00;4.40;;;;;;;;;;106225;1268;25298;-76
2023/02/27 05:09:34;;;;;;;9.80;3.40;;;;;;;;;;106287;1286;24359;-79
2023/02/27 05:13:06;;;;;;;13.30;3.90;;;;;;;;;;106217;1286;22674;-76
2023/02/27 05:15:56;;;;;;;;;;;;;;;;;;;;;
2023/02/27 05:18:37;;;;;;;13.20;3.10;;;;;;;;;;106710;1263;26475;-77
2023/02/27 05:21:26;;;;;;;13.20;3.80;;;;;;;;;;106674;1281;24295;-76
2023/02/27 05:25:17;;;;;;;9.50;2.80;;;;;;;;;;106507;1281;22574;-77
2023/02/27 05:28:09;;;;;;;;;;;;;;;;;;;;;
2023/02/27 05:32:09;;;;;;;11.20;2.80;;;;;;;;;;106458;1281;22608;-74
2023/02/27 05:34:40;;;;;;;11.50;3.80;;;;;;;;;;106665;1281;23766;-75
2023/02/27 05:38:30;;;;;;;12.50;4.10;;;;;;;;;;106872;1255;22539;-75
2023/02/27 05:41:57;;;;;;;16.70;4.40;;;;;;;;;;107091;1275;22537;-75
2023/02/27 05:48:05;;;;;;;;;;;;;;;;;;;;;
2023/02/27 05:51:13;;;;;;;12.20;3.90;;;;;;;;;;106511;1277;22555;-74
2023/02/27 05:54:44;;;;;;;15.20;5.00;;;;;;;;;;106446;1281;22530;-76
2023/02/27 05:57:56;;;;;;;12.60;4.10;;;;;;;;;;106501;1281;25467;-75
2023/02/27 06:00:49;;;;;;;11.70;3.50;;;;;;;;;;106564;1273;25448;-74
2023/02/27 06:04:06;;;;;;;;;;;;;;;;;;;;;
2023/02/27 06:07:21;;;;;;;14.50;3.60;;;;;;;;;;106469;1276;23872;-74
2023/02/27 06:10:15;;;;;;;;;;;;;;;;;;;;;
2023/02/27 06:14:07;;;;;;;23.80;4.10;;;;;;;;;;106027;1280;22600;-77
2023/02/27 06:16:58;;;;;;;;;;;;;;;;;;;;;
2023/02/27 06:20:51;;;;;;;17.90;5.80;;;;;;;;;;105900;1268;25461;-76
2023/02/27 06:27:20;;;;;;;13.70;4.60;;;;;;;;;;106512;1282;22555;-75
2023/02/27 06:29:58;;;;;;;;;;;;;;;;;;;;;
2023/02/27 06:33:07;;;;;;;;;;;;;;;;;;;;;
2023/02/27 06:36:35;;;;;;;13.20;4.30;;;;;;;;;;106417;1282;22637;-78
2023/02/27 06:39:21;;;;;;;13.70;4.40;;;;;;;;;;106436;1259;22560;-75
2023/02/27 06:43:13;;;;;;;12.10;3.00;;;;;;;;;;106432;1282;22631;-77
2023/02/27 06:46:15;;;;;;;10.20;3.40;;;;;;;;;;106361;1282;25364;-77
2023/02/27 06:49:10;;;;;;;;;;;;;;;;;;;;;
2023/02/27 06:53:01;;;;;;;10.60;3.50;;;;;;;;;;106737;1257;22549;-80
2023/02/27 06:55:40;;;;;;;14.20;4.90;;;;;;;;;;106719;1277;22553;-76
2023/02/27 06:58:35;;;;;;;;;;;;;;;;;;;;;
2023/02/27 07:02:03;;;;;;;15.70;5.80;;;;;;;;;;106822;1257;23125;-75
2023/02/27 07:05:34;;;;;;;13.80;5.20;;;;;;;;;;106825;1276;25301;-76
2023/02/27 07:11:21;;;;;;;13.70;4.70;;;;;;;;;;106001;1266;22625;-77
2023/02/27 07:14:11;;;;;;;13.70;3.70;;;;;;;;;;105942;1289;23928;-77
2023/02/27 07:17:02;;;;;;;11.60;3.50;;;;;;;;;;105973;1289;25352;-77
2023/02/27 07:23:37;;;;;;;11.40;3.50;;;;;;;;;;105900;1270;25292;-76
2023/02/27 07:27:07;;;;;;;11.80;2.70;;;;;;;;;;105878;1289;22606;-73
2023/02/27 07:29:31;;;;;;;10.50;2.90;;;;;;;;;;105557;1294;25388;-80
2023/02/27 07:35:47;;;;;;;11.50;3.00;;;;;;;;;;105667;1294;22565;-80
2023/02/27 07:39:15;;;;;;;13.20;3.30;;;;;;;;;;105730;1294;25324;-77
2023/02/27 07:41:52;;;;;;;10.60;3.40;;;;;;;;;;105672;1294;24378;-74
2023/02/27 07:44:31;;;;;;;;;;;;;;;;;;;;;
2023/02/27 07:47:18;;;;;;;14.20;4.10;;;;;;;;;;105952;1281;22591;-78
2023/02/27 07:50:08;;;;;;;11.70;3.60;;;;;;;;;;106429;1281;22530;-78
2023/02/27 07:53:39;;;;;;;13.40;3.30;;;;;;;;;;106619;1264;22706;-74
2023/02/27 07:56:04;;;;;;;12.00;3.60;;;;;;;;;;106394;1273;25240;-74
2023/02/27 07:59:03;;;;;;;11.60;3.90;;;;;;;;;;106400;1282;22533;-78
2023/02/27 08:01:52;;;;;;;12.80;3.30;;;;;;;;;;106393;1282;22747;-77
2023/02/27 08:04:18;;;;;;;15.30;4.70;;;;;;;;;;106484;1281;22651;-80
2023/02/27 08:06:48;;;;;;;12.60;3.80;;;;;;;;;;106704;1276;22511;-79
2023/02/27 08:09:35;;;;;;;12.50;3.50;;;;;;;;;;106812;1272;25339;-76
2023/02/27 08:12:01;;;;;;;14.80;4.30;;;;;;;;;;106855;1276;22643;-75
2023/02/27 08:14:36;;;;;;;14.20;3.60;;;;;;;;;;106816;1259;24363;-79
2023/02/27 08:17:12;;;;;;;14.90;4.20;;;;;;;;;;106907;1276;25294;-76
2023/02/27 08:19:58;;;;;;;16.30;4.10;;;;;;;;;;106854;1277;25401;-75
2023/02/27 08:22:27;;;;;;;10.90;4.00;;;;;;;;;;106842;1277;25474;-76
2023/02/27 08:25:32;;;;;;;;;;;;;;;;;;;;;
2023/02/27 08:28:07;;;;;;;13.50;3.80;;;;;;;;;;106781;1276;24194;-77
2023/02/27 08:31:14;;;;;;;11.70;3.80;;;;;;;;;;106875;1260;22534;-77
2023/02/27 08:34:16;;;;;;;;;;;;;;;;;;;;;
2023/02/27 08:36:50;;;;;;;14.00;4.60;;;;;;;;;;106937;1277;22539;-76
2023/02/27 08:39:39;;;;;;;9.40;2.30;;;;;;;;;;106826;1277;22539;-81
2023/02/27 08:42:29;;;;;;;9.00;2.70;;;;;;;;;;106834;1276;24221;-81
2023/02/27 08:45:13;;;;;;;17.80;5.80;;;;;;;;;;106872;1257;24210;-81
2023/02/27 08:48:20;;;;;;;46.40;19.30;;;;;;;;;;106849;1276;22530;-77
2023/02/27 08:50:58;;;;;;;45.60;17.10;;;;;;;;;;106914;1276;22558;-77
2023/02/27 08:53:37;;;;;;;;;;;;;;;;;;;;;
2023/02/27 08:56:33;;;;;;;161.90;51.90;;;;;;;;;;106844;1276;23877;-74
2023/02/27 08:59:11;;;;;;;48.50;15.30;;;;;;;;;;106792;1276;22634;-79
2023/02/27 09:01:39;;;;;;;52.60;14.00;;;;;;;;;;106777;1276;21782;-81
2023/02/27 09:04:19;;;;;;;27.70;7.80;;;;;;;;;;106851;1258;22529;-78
2023/02/27 09:07:14;;;;;;;15.40;5.10;;;;;;;;;;106880;1275;22741;-80
2023/02/27 09:10:21;;;;;;;30.40;9.50;;;;;;;;;;106931;1276;22531;-74
2023/02/27 09:16:21;;;;;;;19.90;9.10;;;;;;;;;;106858;1256;22535;-74
2023/02/27 09:19:07;;;;;;;83.80;34.70;;;;;;;;;;106849;1276;22645;-75
2023/02/27 09:21:36;;;;;;;54.00;21.20;;;;;;;;;;106882;1276;23026;-79
2023/02/27 09:24:31;;;;;;;17.00;7.10;;;;;;;;;;106853;1276;22534;-75
2023/02/27 09:27:00;;;;;;;15.50;5.30;;;;;;;;;;106903;1275;22540;-78
2023/02/27 09:29:57;;;;;;;;;;;;;;;;;;;;;
2023/02/27 09:32:44;;;;;;;;;;;;;;;;;;;;;
2023/02/27 09:35:30;;;;;;;24.90;8.50;;;;;;;;;;106834;1259;25534;-76
2023/02/27 09:38:10;;;;;;;;;;;;;;;;;;;;;
2023/02/27 09:40:58;;;;;;;17.20;7.30;;;;;;;;;;106841;1276;22541;-79
2023/02/27 09:43:48;;;;;;;14.30;6.40;;;;;;;;;;106875;1276;22930;-78
2023/02/27 09:46:58;;;;;;;13.10;5.70;;;;;;;;;;106902;1257;22537;-77
2023/02/27 09:50:03;;;;;;;12.30;5.00;;;;;;;;;;106951;1275;22645;-73
2023/02/27 09:52:48;;;;;;;10.00;3.80;;;;;;;;;;106874;1276;22671;-74
2023/02/27 09:55:38;;;;;;;12.20;4.70;;;;;;;;;;106816;1253;22529;-74
2023/02/27 09:59:04;;;;;;;10.70;4.90;;;;;;;;;;106714;1276;21783;-75
2023/02/27 10:01:52;;;;;;;14.20;5.20;;;;;;;;;;106906;1276;22500;-73
2023/02/27 10:04:38;;;;;;;10.90;5.60;;;;;;;;;;106746;1276;25445;-76
2023/02/27 10:10:59;;;;;;;;;;;;;;;;;;;;;
2023/02/27 10:13:51;;;;;;;13.70;6.70;;;;;;;;;;106901;1276;25339;-77
2023/02/27 10:16:39;;;;;;;16.60;7.00;;;;;;;;;;106881;1261;22640;-74
2023/02/27 10:19:27;;;;;;;15.80;7.80;;;;;;;;;;106834;1276;25271;-75
2023/02/27 10:22:59;;;;;;;12.40;4.70;;;;;;;;;;106790;1276;22660;-76
2023/02/27 10:25:20;;;;;;;14.90;6.30;;;;;;;;;;106817;1276;25324;-75
2023/02/27 10:28:14;;;;;;;16.30;6.70;;;;;;;;;;106858;1258;22001;-74
2023/02/27 10:31:22;;;;;;;13.80;5.90;;;;;;;;;;106794;1276;25358;-74
2023/02/27 10:34:28;;;;;;;16.60;7.40;;;;;;;;;;106498;1281;23328;-76
2023/02/27 10:37:43;;;;;;;13.60;6.20;;;;;;;;;;106340;1265;24381;-76
2023/02/27 10:43:13;;;;;;;12.90;5.60;;;;;;;;;;106392;1282;22540;-74
2023/02/27 10:45:44;;;;;;;11.40;4.70;;;;;;;;;;106373;1283;22536;-78
2023/02/27 10:48:32;;;;;;;8.80;3.60;;;;;;;;;;106418;1281;22530;-75
2023/02/27 10:51:18;;;;;;;11.50;3.90;;;;;;;;;;106418;1281;22544;-80
2023/02/27 10:53:53;;;;;;;10.80;4.30;;;;;;;;;;106511;1281;22591;-76
2023/02/27 10:56:35;;;;;;;;;;;;;;;;;;;;;
2023/02/27 10:59:37;;;;;;;23.00;6.10;;;;;;;;;;106423;1282;24382;-75
2023/02/27 11:02:46;;;;;;;11.30;4.00;;;;;;;;;;106412;1282;22664;-77
2023/02/27 11:05:44;;;;;;;10.90;4.20;;;;;;;;;;106433;1283;22539;-75
2023/02/27 11:08:29;;;;;;;15.80;5.40;;;;;;;;;;106457;1262;22542;-80
2023/02/27 11:11:21;;;;;;;10.50;4.30;;;;;;;;;;106721;1275;24417;-78
2023/02/27 11:13:55;;;;;;;10.70;3.90;;;;;;;;;;106836;1276;25292;-75
2023/02/27 11:16:53;;;;;;;9.30;3.60;;;;;;;;;;106938;1276;22536;-76
2023/02/27 11:19:30;;;;;;;8.30;2.90;;;;;;;;;;106424;1265;22657;-78
2023/02/27 11:22:04;;;;;;;13.90;4.80;;;;;;;;;;106388;1282;22546;-80
2023/02/27 11:24:39;;;;;;;11.50;3.60;;;;;;;;;;106444;1282;21793;-76
2023/02/27 11:27:28;;;;;;;7.80;2.80;;;;;;;;;;106447;1283;25627;-75
2023/02/27 11:30:24;;;;;;;16.40;4.50;;;;;;;;;;106718;1262;22609;-80
2023/02/27 11:33:41;;;;;;;13.20;3.70;;;;;;;;;;106535;1281;22594;-75
2023/02/27 11:35:54;;;;;;;9.60;3.80;;;;;;;;;;106393;1281;25481;-78
2023/02/27 11:38:28;;;;;;;9.40;3.30;;;;;;;;;;106503;1264;22540;-76
2023/02/27 11:41:17;;;;;;;12.10;5.40;;;;;;;;;;106434;1282;23374;-78
2023/02/27 11:43:59;;;;;;;18.10;6.60;;;;;;;;;;106335;1282;25559;-80
2023/02/27 11:46:46;;;;;;;14.70;5.40;;;;;;;;;;106412;1282;22544;-75
2023/02/27 11:49:48;;;;;;;;;;;;;;;;;;;;;
2023/02/27 11:52:34;;;;;;;15.30;4.10;;;;;;;;;;106531;1281;22506;-76
2023/02/27 11:55:02;;;;;;;9.50;2.40;;;;;;;;;;106524;1281;24485;-74
2023/02/27 11:57:49;;;;;;;12.00;4.40;;;;;;;;;;106857;1276;24221;-79
2023/02/27 12:00:15;;;;;;;10.60;3.80;;;;;;;;;;106828;1259;22553;-73
2023/02/27 12:03:10;;;;;;;;;;;;;;;;;;;;;
2023/02/27 12:05:46;;;;;;;9.30;2.90;;;;;;;;;;107064;1276;22541;-80
2023/02/27 12:08:16;;;;;;;15.90;5.10;;;;;;;;;;106894;1276;24325;-74
2023/02/27 12:10:50;;;;;;;19.30;6.30;;;;;;;;;;106921;1276;22549;-74
2023/02/27 12:13:19;;;;;;;13.60;3.00;;;;;;;;;;106871;1276;25686;-75
2023/02/27 12:16:12;;;;;;;12.40;3.50;;;;;;;;;;107017;1276;24335;-78
2023/02/27 12:19:10;;;;;;;11.70;6.00;;;;;;;;;;106912;1276;22507;-74
2023/02/27 12:21:55;;;;;;;8.70;2.60;;;;;;;;;;106875;1259;25425;-80
2023/02/27 12:24:51;;;;;;;17.30;7.60;;;;;;;;;;106835;1276;24254;-76
2023/02/27 12:27:57;;;;;;;12.80;5.20;;;;;;;;;;106960;1276;25344;-74
2023/02/27 12:30:32;;;;;;;10.90;2.50;;;;;;;;;;106989;1258;22541;-77
2023/02/27 12:32:58;;;;;;;12.50;4.00;;;;;;;;;;106951;1276;22533;-80
2023/02/27 12:35:48;;;;;;;10.50;3.60;;;;;;;;;;106946;1276;23909;-75
2023/02/27 12:38:37;;;;;;;15.00;4.00;;;;;;;;;;106961;1276;22540;-76
2023/02/27 12:41:32;;;;;;;8.60;3.20;;;;;;;;;;106930;1259;25363;-76
2023/02/27 12:44:01;;;;;;;20.60;9.20;;;;;;;;;;106919;1265;25231;-78
2023/02/27 12:46:50;;;;;;;20.70;6.50;;;;;;;;;;107112;1275;22490;-74
2023/02/27 12:49:35;;;;;;;24.20;6.60;;;;;;;;;;107021;1268;22531;-75
2023/02/27 12:52:42;;;;;;;21.30;6.10;;;;;;;;;;106970;1258;25392;-73
2023/02/27 12:58:38;;;;;;;10.50;3.20;;;;;;;;;;107073;1271;25335;-74
2023/02/27 13:01:46;;;;;;;12.60;3.20;;;;;;;;;;107059;1257;24361;-75
2023/02/27 13:04:58;;;;;;;14.70;3.90;;;;;;;;;;106976;1275;25370;-74
2023/02/27 13:07:36;;;;;;;26.30;7.50;;;;;;;;;;107020;1269;24192;-76
2023/02/27 13:10:17;;;;;;;20.60;6.50;;;;;;;;;;107046;1275;23185;-76
2023/02/27 13:13:04;;;;;;;16.40;5.70;;;;;;;;;;106828;1259;22557;-81
2023/02/27 13:15:47;;;;;;;18.50;6.20;;;;;;;;;;107026;1270;23866;-74
2023/02/27 13:18:44;;;;;;;86.80;25.80;;;;;;;;;;106923;1271;25363;-76
2023/02/27 13:21:40;;;;;;;55.90;21.90;;;;;;;;;;106977;1256;24233;-80
2023/02/27 13:24:09;;;;;;;67.30;24.40;;;;;;;;;;107035;1275;25286;-77
2023/02/27 13:26:55;;;;;;;36.00;15.70;;;;;;;;;;107007;1275;23181;-77
2023/02/27 13:29:22;;;;;;;25.60;11.30;;;;;;;;;;107063;1260;22589;-77
2023/02/27 13:32:01;;;;;;;31.40;12.20;;;;;;;;;;106958;1257;25210;-75
2023/02/27 13:34:47;;;;;;;13.00;5.00;;;;;;;;;;107242;1267;26249;-74
2023/02/27 13:37:36;;;;;;;15.20;6.30;;;;;;;;;;107095;1275;25488;-75
2023/02/27 13:40:30;;;;;;;12.80;4.00;;;;;;;;;;110578;1275;22433;-73
2023/02/27 13:42:59;;;;;;;16.70;6.20;;;;;;;;;;110509;1257;22141;-73
2023/02/27 13:45:43;;;;;;;29.80;11.80;;;;;;;;;;110462;1268;22149;-73
2023/02/27 13:48:30;;;;;;;29.00;13.90;;;;;;;;;;110656;1268;22350;-74
2023/02/27 13:50:56;;;;;;;29.20;13.60;;;;;;;;;;110503;1268;22467;-72
2023/02/27 13:53:23;;;;;;;17.90;7.40;;;;;;;;;;110659;1256;22928;-73
2023/02/27 13:55:51;;;;;;;15.40;5.60;;;;;;;;;;110716;1269;22184;-73
2023/02/27 13:58:27;;;;;;;17.40;8.70;;;;;;;;;;110581;1270;22256;-73
2023/02/27 14:01:25;;;;;;;24.70;12.30;;;;;;;;;;110618;1269;22334;-74
2023/02/27 14:04:06;;;;;;;25.40;11.30;;;;;;;;;;110318;1258;22330;-74
2023/02/27 14:06:32;;;;;;;33.60;16.20;;;;;;;;;;110558;1275;22179;-74
2023/02/27 14:09:09;;;;;;;22.10;10.10;;;;;;;;;;110582;1275;22900;-74
2023/02/27 14:11:38;;;;;;;21.20;7.80;;;;;;;;;;110590;1275;22359;-74
2023/02/27 14:14:39;;;;;;;21.30;6.50;;;;;;;;;;110558;1266;22434;-74
2023/02/27 14:17:35;;;;;;;19.30;5.60;;;;;;;;;;110606;1272;22443;-74
2023/02/27 14:20:04;;;;;;;42.90;13.60;;;;;;;;;;110601;1269;22235;-74
2023/02/27 14:22:42;;;;;;;146.20;39.20;;;;;;;;;;110581;1253;23019;-75
2023/02/27 14:26:00;;;;;;;169.40;51.70;;;;;;;;;;110571;1275;22341;-74
2023/02/27 14:28:25;;;;;;;120.30;45.90;;;;;;;;;;110592;1275;22034;-74
2023/02/27 14:30:56;;;;;;;54.30;24.20;;;;;;;;;;110572;1275;22345;-73
2023/02/27 14:33:52;;;;;;;;;;;;;;;;;;;;;
2023/02/27 14:36:46;;;;;;;29.20;8.10;;;;;;;;;;110599;1269;22886;-74
2023/02/27 14:39:39;;;;;;;35.70;10.40;;;;;;;;;;110583;1275;22117;-74
2023/02/27 14:42:23;;;;;;;20.50;6.20;;;;;;;;;;110576;1275;22119;-76
2023/02/27 14:44:57;;;;;;;23.60;5.90;;;;;;;;;;110604;1258;22201;-73
2023/02/27 14:47:59;;;;;;;57.60;14.80;;;;;;;;;;110585;1255;22851;-73
2023/02/27 14:50:33;;;;;;;61.60;14.20;;;;;;;;;;110627;1274;22140;-74
2023/02/27 14:53:00;;;;;;;33.90;9.50;;;;;;;;;;110490;1253;23212;-74
2023/02/27 14:55:52;;;;;;;35.20;8.60;;;;;;;;;;110463;1275;22792;-74
2023/02/27 14:58:20;;;;;;;45.50;9.80;;;;;;;;;;110497;1275;22210;-74
2023/02/27 15:01:03;;;;;;;67.70;26.00;;;;;;;;;;110321;1275;22142;-74
2023/02/27 15:03:35;;;;;;;25.20;7.00;;;;;;;;;;110549;1254;22178;-74
2023/02/27 15:06:12;;;;;;;29.50;13.70;;;;;;;;;;110511;1274;22178;-74
2023/02/27 15:08:42;;;;;;;50.40;12.10;;;;;;;;;;110629;1274;22128;-74
2023/02/27 15:11:18;;;;;;;27.90;8.50;;;;;;;;;;110553;1275;22139;-74
2023/02/27 15:13:48;;;;;;;29.00;8.30;;;;;;;;;;110565;1254;22841;-74
2023/02/27 15:16:23;;;;;;;26.40;10.70;;;;;;;;;;110561;1275;22995;-75
2023/02/27 15:19:18;;;;;;;25.50;10.80;;;;;;;;;;110563;1274;22146;-74
2023/02/27 15:21:55;;;;;;;28.90;7.60;;;;;;;;;;110601;1275;22014;-75
2023/02/27 15:24:34;;;;;;;29.80;8.40;;;;;;;;;;110678;1266;22135;-74
2023/02/27 15:27:08;;;;;;;29.30;8.90;;;;;;;;;;110620;1275;22130;-73
2023/02/27 15:29:36;;;;;;;14.10;5.60;;;;;;;;;;110606;1274;22115;-75
2023/02/27 15:32:03;;;;;;;17.90;4.40;;;;;;;;;;110628;1275;22208;-74
2023/02/27 15:34:30;;;;;;;12.00;3.70;;;;;;;;;;110648;1266;22128;-73
2023/02/27 15:37:00;;;;;;;8.80;2.50;;;;;;;;;;110597;1275;22132;-75
2023/02/27 15:39:29;;;;;;;10.40;2.60;;;;;;;;;;110588;1275;23108;-73
2023/02/27 15:41:56;;;;;;;10.50;3.30;;;;;;;;;;110552;1276;22160;-73
2023/02/27 15:44:36;;;;;;;11.30;3.80;;;;;;;;;;110434;1259;22197;-73
2023/02/27 15:47:04;;;;;;;16.30;5.30;;;;;;;;;;110612;1275;22213;-78
2023/02/27 15:49:33;;;;;;;10.30;3.60;;;;;;;;;;110537;1275;21984;-76
2023/02/27 15:52:18;;;;;;;11.00;3.60;;;;;;;;;;110573;1265;22141;-74
2023/02/27 15:54:50;;;;;;;12.40;3.40;;;;;;;;;;110609;1269;22115;-75
2023/02/27 15:57:18;;;;;;;16.80;4.80;;;;;;;;;;110564;1275;22124;-74
2023/02/27 15:59:44;;;;;;;32.30;14.50;;;;;;;;;;110304;1275;22903;-76
2023/02/27 16:02:29;;;;;;;48.50;23.90;;;;;;;;;;110615;1275;22887;-75
2023/02/27 16:04:55;;;;;;;38.20;16.70;;;;;;;;;;110565;1267;22174;-75
2023/02/27 16:07:22;;;;;;;28.10;9.60;;;;;;;;;;110587;1275;22859;-75
2023/02/27 16:10:04;;;;;;;25.80;7.20;;;;;;;;;;110563;1275;22880;-74
2023/02/27 16:12:32;;;;;;;18.70;5.30;;;;;;;;;;110356;1275;22430;-75
2023/02/27 16:15:19;;;;;;;20.80;5.70;;;;;;;;;;110578;1254;22808;-76
2023/02/27 16:18:05;;;;;;;22.60;6.20;;;;;;;;;;110540;1275;22136;-74
2023/02/27 16:20:31;;;;;;;21.00;5.10;;;;;;;;;;110519;1275;22117;-75
2023/02/27 16:23:03;;;;;;;43.50;12.10;;;;;;;;;;110602;1275;22309;-74
2023/02/27 16:25:29;;;;;;;41.70;14.00;;;;;;;;;;110674;1256;23036;-73
2023/02/27 16:27:55;;;;;;;47.20;16.50;;;;;;;;;;110552;1275;22194;-73
2023/02/27 16:30:31;;;;;;;37.70;12.20;;;;;;;;;;110603;1275;22139;-73
2023/02/27 16:32:58;;;;;;;36.30;12.30;;;;;;;;;;110402;1275;22913;-72
2023/02/27 16:35:24;;;;;;;23.90;7.20;;;;;;;;;;110575;1257;22294;-74
2023/02/27 16:37:52;;;;;;;25.80;8.00;;;;;;;;;;110632;1275;22968;-74
2023/02/27 16:40:21;;;;;;;30.70;10.20;;;;;;;;;;110625;1276;22276;-74
2023/02/27 16:42:47;;;;;;;34.70;9.80;;;;;;;;;;110448;1276;22157;-74
2023/02/27 16:45:15;;;;;;;31.70;9.90;;;;;;;;;;110309;1252;22131;-74
2023/02/27 16:47:41;;;;;;;30.60;10.10;;;;;;;;;;110281;1275;22141;-73
2023/02/27 16:50:12;;;;;;;39.90;11.40;;;;;;;;;;110575;1275;22123;-76
2023/02/27 16:52:38;;;;;;;35.20;9.90;;;;;;;;;;110622;1275;22155;-74
2023/02/27 16:55:05;;;;;;;30.10;9.10;;;;;;;;;;110388;1275;22194;-74
2023/02/27 16:57:31;;;;;;;35.50;10.10;;;;;;;;;;110640;1260;22064;-74
2023/02/27 17:00:08;;;;;;;41.10;12.30;;;;;;;;;;110587;1276;22147;-75
2023/02/27 17:02:41;;;;;;;59.30;18.80;;;;;;;;;;110322;1276;22737;-74
2023/02/27 17:05:08;;;;;;;52.50;18.10;;;;;;;;;;110445;1276;22141;-74
2023/02/27 17:07:35;;;;;;;51.90;18.00;;;;;;;;;;110821;1259;22944;-74
2023/02/27 17:10:02;;;;;;;52.90;17.20;;;;;;;;;;110531;1275;22592;-74
2023/02/27 17:12:28;;;;;;;64.80;20.50;;;;;;;;;;110523;1275;22167;-73
2023/02/27 17:14:55;;;;;;;59.90;20.20;;;;;;;;;;110638;1275;22926;-73
2023/02/27 17:17:24;;;;;;;69.50;21.80;;;;;;;;;;110734;1259;22151;-73
2023/02/27 17:19:50;;;;;;;58.90;20.40;;;;;;;;;;110455;1276;22121;-73
2023/02/27 17:22:16;;;;;;;55.80;20.90;;;;;;;;;;110638;1276;22228;-74
2023/02/27 17:24:45;;;;;;;42.70;15.90;;;;;;;;;;110613;1276;22121;-74
2023/02/27 17:27:11;;;;;;;41.40;14.60;;;;;;;;;;110486;1257;22135;-74
2023/02/27 17:29:38;;;;;;;29.70;11.30;;;;;;;;;;110386;1275;22585;-75
2023/02/27 17:32:04;;;;;;;24.30;9.20;;;;;;;;;;110532;1275;22972;-74
2023/02/27 17:34:30;;;;;;;27.70;10.90;;;;;;;;;;110409;1275;21711;-74
2023/02/27 17:36:56;;;;;;;31.60;10.40;;;;;;;;;;110736;1254;22939;-74